Licenciado Adolfo Lopez Mateos International Airport
MMTO : now visible

Airfield :











YOU CAN JOIN US ON...

 
LOGIN :

Register | Disclaimer

   EN    FR    IT 

 









Legend :    VFR   Marginal VFR   IFR   Intensive IFR   Very Intensive IFR
Visi :
Ceiling :
>= 8 km
>= 3000ft
5 to 8 km
1000 to 3000 ft
1500m to 5 km
500 to 1000 ft
800 to 1500m
200 to 500 ft
< 800m
< 200 ft
Symbols :   Thunderstorms  Fog  Heavy snow  Heavy precipitations  Wind > 20 kt






- Airport Elevation : 8466 ft
- IATA code : TLC


MMTO - Licenciado Adolfo Lopez Mateos International

CURRENT METAR :
  • 111848Z 08006KT 6SM BKN015TCU 20/08 A3037 RMK 8/200 HZY VSBY LWR SE

EXPIRED METARs :
  • 111746Z 29004KT 6SM SCT015TCU 19/08 A3040 RMK SLP140 57009 958 8/200 HZY
  • 111646Z 31003KT 4SM FEW015 17/10 A3043 RMK 8/100 HZY

TAF TAF MMTO
Valid from the 11 at 18:00 until the 13 at 00:00 UTC


111641Z 1118/1224 04015KT P6SM BKN020 OVC070 TX21/1120Z TN06/1212Z
FM112000 03015KT P6SM BKN015CB OVC070
TEMPO 1122/1202 5SM RA
FM120600 06010KT 3SM BR OVC010
TEMPO 1212/1215 1SM BR
FM121600 08012KT 3SM HZ OVC015



MET'MAP, your aeronautical weather chart ! - Copyright ORBIFLY December 2007 - Disclaimer

ORBIFLY MET'MAP TEAM :

Programming & Development : Alexandra Zaïnal
Concept & Development : Baudouin d'Aumeries
Co-Development & Prog : Marc-Olivier Méhu
Technical & hardware support : Manuel Goepfert

Contact : metmap@orbifly.com




SOURCES & CREDITS :

   NOAA       Earth
Advisory